sensor_id;sensor_type;location;lat;lon;timestamp;pressure;altitude;pressure_sealevel;temperature;humidity
69171;BME280;56279;47.902;12.308;2022-10-18T00:00:06;96386.69;;;12.34;87.82
69171;BME280;56279;47.902;12.308;2022-10-18T00:02:09;96380.59;;;12.29;87.96
69171;BME280;56279;47.902;12.308;2022-10-18T00:04:10;96377.66;;;12.25;88.01
69171;BME280;56279;47.902;12.308;2022-10-18T00:06:12;96374.47;;;12.23;88.17
69171;BME280;56279;47.902;12.308;2022-10-18T00:08:14;96367.84;;;12.21;88.36
69171;BME280;56279;47.902;12.308;2022-10-18T00:10:15;96376.06;;;12.19;88.70
69171;BME280;56279;47.902;12.308;2022-10-18T00:12:16;96367.59;;;12.17;88.46
69171;BME280;56279;47.902;12.308;2022-10-18T00:14:18;96368.91;;;12.15;88.67
69171;BME280;56279;47.902;12.308;2022-10-18T00:16:19;96364.94;;;12.12;88.65
69171;BME280;56279;47.902;12.308;2022-10-18T00:18:20;96364.66;;;12.09;88.78
69171;BME280;56279;47.902;12.308;2022-10-18T00:20:22;96362.25;;;12.07;88.61
69171;BME280;56279;47.902;12.308;2022-10-18T00:22:23;96367.56;;;12.07;88.63
69171;BME280;56279;47.902;12.308;2022-10-18T00:24:25;96359.09;;;12.05;88.53
69171;BME280;56279;47.902;12.308;2022-10-18T00:26:28;96363.84;;;12.03;88.46
69171;BME280;56279;47.902;12.308;2022-10-18T00:28:29;96353.53;;;12.02;88.51
69171;BME280;56279;47.902;12.308;2022-10-18T00:30:31;96360.13;;;11.99;88.33
69171;BME280;56279;47.902;12.308;2022-10-18T00:32:39;96359.84;;;11.96;88.49
69171;BME280;56279;47.902;12.308;2022-10-18T00:34:41;96362.22;;;11.92;88.71
69171;BME280;56279;47.902;12.308;2022-10-18T00:36:43;96364.84;;;11.87;88.71
69171;BME280;56279;47.902;12.308;2022-10-18T00:38:45;96358.50;;;11.83;89.00
69171;BME280;56279;47.902;12.308;2022-10-18T00:40:46;96357.41;;;11.79;89.18
69171;BME280;56279;47.902;12.308;2022-10-18T00:42:48;96354.50;;;11.75;89.19
69171;BME280;56279;47.902;12.308;2022-10-18T00:46:52;96351.81;;;11.70;89.34
69171;BME280;56279;47.902;12.308;2022-10-18T00:48:57;96349.44;;;11.69;89.37
69171;BME280;56279;47.902;12.308;2022-10-18T00:50:59;96354.97;;;11.67;89.39
69171;BME280;56279;47.902;12.308;2022-10-18T00:53:04;96355.72;;;11.63;89.42
69171;BME280;56279;47.902;12.308;2022-10-18T00:55:07;96350.41;;;11.58;89.54
69171;BME280;56279;47.902;12.308;2022-10-18T00:57:08;96354.34;;;11.55;89.72
69171;BME280;56279;47.902;12.308;2022-10-18T00:59:13;96351.16;;;11.53;89.81
69171;BME280;56279;47.902;12.308;2022-10-18T01:01:15;96353.28;;;11.51;89.88
69171;BME280;56279;47.902;12.308;2022-10-18T01:03:16;96355.91;;;11.51;89.99
69171;BME280;56279;47.902;12.308;2022-10-18T01:05:18;96355.13;;;11.51;90.04
69171;BME280;56279;47.902;12.308;2022-10-18T01:07:46;96352.22;;;11.47;90.08
69171;BME280;56279;47.902;12.308;2022-10-18T01:10:00;96352.22;;;11.47;90.04
69171;BME280;56279;47.902;12.308;2022-10-18T01:14:35;96355.63;;;11.43;90.21
69171;BME280;56279;47.902;12.308;2022-10-18T01:19:05;96345.84;;;11.43;90.42
69171;BME280;56279;47.902;12.308;2022-10-18T01:25:53;96339.47;;;11.39;90.35
69171;BME280;56279;47.902;12.308;2022-10-18T01:33:20;96344.22;;;11.37;90.62
69171;BME280;56279;47.902;12.308;2022-10-18T01:35:28;96339.72;;;11.38;90.69
69171;BME280;56279;47.902;12.308;2022-10-18T01:37:33;96346.63;;;11.39;91.06
69171;BME280;56279;47.902;12.308;2022-10-18T01:39:37;96345.00;;;11.38;91.34
69171;BME280;56279;47.902;12.308;2022-10-18T01:41:43;96339.72;;;11.38;91.22
69171;BME280;56279;47.902;12.308;2022-10-18T01:43:47;96352.16;;;11.37;91.11
69171;BME280;56279;47.902;12.308;2022-10-18T01:45:52;96348.44;;;11.33;91.21
69171;BME280;56279;47.902;12.308;2022-10-18T01:47:54;96354.47;;;11.29;91.28
69171;BME280;56279;47.902;12.308;2022-10-18T01:49:59;96360.78;;;11.23;91.08
69171;BME280;56279;47.902;12.308;2022-10-18T01:52:00;96359.16;;;11.17;91.21
69171;BME280;56279;47.902;12.308;2022-10-18T01:54:02;96358.31;;;11.11;91.54
69171;BME280;56279;47.902;12.308;2022-10-18T01:58:21;96356.16;;;11.03;91.48
69171;BME280;56279;47.902;12.308;2022-10-18T02:00:40;96352.19;;;11.00;91.57
69171;BME280;56279;47.902;12.308;2022-10-18T02:02:52;96349.00;;;10.98;91.49
69171;BME280;56279;47.902;12.308;2022-10-18T02:05:20;96345.03;;;10.96;91.60
69171;BME280;56279;47.902;12.308;2022-10-18T02:07:50;96347.13;;;10.94;91.57
69171;BME280;56279;47.902;12.308;2022-10-18T02:10:02;96347.13;;;10.94;91.75
69171;BME280;56279;47.902;12.308;2022-10-18T02:12:11;96357.91;;;10.92;91.81
69171;BME280;56279;47.902;12.308;2022-10-18T02:14:14;96348.66;;;10.90;91.83
69171;BME280;56279;47.902;12.308;2022-10-18T02:16:23;96350.00;;;10.87;92.13
69171;BME280;56279;47.902;12.308;2022-10-18T02:18:34;96352.84;;;10.86;91.85
69171;BME280;56279;47.902;12.308;2022-10-18T02:20:37;96348.66;;;10.85;92.14
69171;BME280;56279;47.902;12.308;2022-10-18T02:22:40;96353.94;;;10.85;92.25
69171;BME280;56279;47.902;12.308;2022-10-18T02:24:49;96357.06;;;10.82;92.17
69171;BME280;56279;47.902;12.308;2022-10-18T02:26:51;96358.91;;;10.81;92.35
69171;BME280;56279;47.902;12.308;2022-10-18T02:28:53;96362.59;;;10.80;92.23
69171;BME280;56279;47.902;12.308;2022-10-18T02:31:05;96357.81;;;10.77;92.40
69171;BME280;56279;47.902;12.308;2022-10-18T02:33:16;96363.09;;;10.77;92.50
69171;BME280;56279;47.902;12.308;2022-10-18T02:35:43;96359.13;;;10.75;92.40
69171;BME280;56279;47.902;12.308;2022-10-18T02:37:47;96355.66;;;10.74;92.59
69171;BME280;56279;47.902;12.308;2022-10-18T02:39:50;96362.03;;;10.73;92.35
69171;BME280;56279;47.902;12.308;2022-10-18T02:41:52;96366.22;;;10.74;92.60
69171;BME280;56279;47.902;12.308;2022-10-18T02:43:54;96354.09;;;10.73;92.66
69171;BME280;56279;47.902;12.308;2022-10-18T02:45:55;96352.50;;;10.72;92.61
69171;BME280;56279;47.902;12.308;2022-10-18T02:47:56;96355.94;;;10.73;92.70
69171;BME280;56279;47.902;12.308;2022-10-18T02:49:58;96351.47;;;10.73;92.81
69171;BME280;56279;47.902;12.308;2022-10-18T02:51:59;96344.31;;;10.74;93.26
69171;BME280;56279;47.902;12.308;2022-10-18T02:54:00;96338.78;;;10.75;93.19
69171;BME280;56279;47.902;12.308;2022-10-18T02:56:02;96340.38;;;10.76;93.15
69171;BME280;56279;47.902;12.308;2022-10-18T02:58:03;96349.09;;;10.77;93.34
69171;BME280;56279;47.902;12.308;2022-10-18T03:00:05;96352.00;;;10.75;93.27
69171;BME280;56279;47.902;12.308;2022-10-18T03:02:06;96350.94;;;10.76;93.46
69171;BME280;56279;47.902;12.308;2022-10-18T03:04:08;96354.63;;;10.75;93.46
69171;BME280;56279;47.902;12.308;2022-10-18T03:06:10;96351.19;;;10.75;93.46
69171;BME280;56279;47.902;12.308;2022-10-18T03:08:11;96358.09;;;10.76;93.65
69171;BME280;56279;47.902;12.308;2022-10-18T03:10:12;96360.72;;;10.76;93.56
69171;BME280;56279;47.902;12.308;2022-10-18T03:12:14;96360.47;;;10.77;93.91
69171;BME280;56279;47.902;12.308;2022-10-18T03:14:15;96357.81;;;10.77;93.79
69171;BME280;56279;47.902;12.308;2022-10-18T03:16:16;96361.25;;;10.78;93.97
69171;BME280;56279;47.902;12.308;2022-10-18T03:18:18;96362.84;;;10.79;94.00
69171;BME280;56279;47.902;12.308;2022-10-18T03:20:19;96361.00;;;10.79;93.86
69171;BME280;56279;47.902;12.308;2022-10-18T03:22:20;96361.00;;;10.79;94.16
69171;BME280;56279;47.902;12.308;2022-10-18T03:24:21;96360.19;;;10.79;94.18
69171;BME280;56279;47.902;12.308;2022-10-18T03:26:23;96356.75;;;10.78;94.15
69171;BME280;56279;47.902;12.308;2022-10-18T03:28:24;96360.72;;;10.76;94.24
69171;BME280;56279;47.902;12.308;2022-10-18T03:30:25;96368.38;;;10.77;94.26
69171;BME280;56279;47.902;12.308;2022-10-18T03:32:27;96362.56;;;10.75;94.31
69171;BME280;56279;47.902;12.308;2022-10-18T03:34:28;96368.88;;;10.74;94.35
69171;BME280;56279;47.902;12.308;2022-10-18T03:36:29;96364.66;;;10.73;94.49
69171;BME280;56279;47.902;12.308;2022-10-18T03:38:30;96361.22;;;10.73;94.49
69171;BME280;56279;47.902;12.308;2022-10-18T03:40:32;96354.34;;;10.72;94.40
69171;BME280;56279;47.902;12.308;2022-10-18T03:42:33;96347.72;;;10.69;94.33
69171;BME280;56279;47.902;12.308;2022-10-18T03:44:34;96359.88;;;10.70;94.47
69171;BME280;56279;47.902;12.308;2022-10-18T03:46:36;96359.88;;;10.70;94.74
69171;BME280;56279;47.902;12.308;2022-10-18T03:48:37;96363.06;;;10.72;94.61
69171;BME280;56279;47.902;12.308;2022-10-18T03:50:38;96364.66;;;10.73;94.63
69171;BME280;56279;47.902;12.308;2022-10-18T03:52:39;96369.94;;;10.73;94.63
69171;BME280;56279;47.902;12.308;2022-10-18T03:54:40;96360.91;;;10.69;94.57
69171;BME280;56279;47.902;12.308;2022-10-18T03:56:42;96363.00;;;10.67;94.45
69171;BME280;56279;47.902;12.308;2022-10-18T03:58:43;96360.88;;;10.64;94.68
69171;BME280;56279;47.902;12.308;2022-10-18T04:00:44;96357.13;;;10.60;94.72
69171;BME280;56279;47.902;12.308;2022-10-18T04:02:45;96350.28;;;10.59;94.74
69171;BME280;56279;47.902;12.308;2022-10-18T04:04:47;96351.59;;;10.57;94.69
69171;BME280;56279;47.902;12.308;2022-10-18T04:06:48;96351.59;;;10.57;94.62
69171;BME280;56279;47.902;12.308;2022-10-18T04:08:49;96352.63;;;10.56;94.75
69171;BME280;56279;47.902;12.308;2022-10-18T04:10:50;96355.25;;;10.56;94.91
69171;BME280;56279;47.902;12.308;2022-10-18T04:12:52;96349.97;;;10.56;94.78
69171;BME280;56279;47.902;12.308;2022-10-18T04:14:58;96347.59;;;10.54;94.99
69171;BME280;56279;47.902;12.308;2022-10-18T04:16:59;96345.44;;;10.51;94.95
69171;BME280;56279;47.902;12.308;2022-10-18T04:19:00;96345.94;;;10.48;94.92
69171;BME280;56279;47.902;12.308;2022-10-18T04:21:01;96345.41;;;10.46;95.08
69171;BME280;56279;47.902;12.308;2022-10-18T04:23:03;96343.81;;;10.45;94.97
69171;BME280;56279;47.902;12.308;2022-10-18T04:25:04;96342.22;;;10.44;95.18
69171;BME280;56279;47.902;12.308;2022-10-18T04:27:06;96346.94;;;10.42;95.02
69171;BME280;56279;47.902;12.308;2022-10-18T04:29:07;96351.44;;;10.41;95.12
69171;BME280;56279;47.902;12.308;2022-10-18T04:31:09;96360.63;;;10.39;95.28
69171;BME280;56279;47.902;12.308;2022-10-18T04:33:11;96365.63;;;10.35;95.11
69171;BME280;56279;47.902;12.308;2022-10-18T04:35:12;96367.97;;;10.32;95.19
69171;BME280;56279;47.902;12.308;2022-10-18T04:37:13;96361.59;;;10.28;95.03
69171;BME280;56279;47.902;12.308;2022-10-18T04:39:14;96359.44;;;10.25;95.17
69171;BME280;56279;47.902;12.308;2022-10-18T04:41:16;96369.44;;;10.23;95.24
69171;BME280;56279;47.902;12.308;2022-10-18T04:43:17;96368.91;;;10.21;95.43
69171;BME280;56279;47.902;12.308;2022-10-18T04:45:18;96368.91;;;10.21;95.31
69171;BME280;56279;47.902;12.308;2022-10-18T04:47:20;96371.00;;;10.19;94.96
69171;BME280;56279;47.902;12.308;2022-10-18T04:49:21;96364.91;;;10.18;95.18
69171;BME280;56279;47.902;12.308;2022-10-18T04:51:22;96363.56;;;10.16;95.35
69171;BME280;56279;47.902;12.308;2022-10-18T04:53:23;96361.47;;;10.18;95.00
69171;BME280;56279;47.902;12.308;2022-10-18T04:55:25;96357.56;;;10.20;95.21
69171;BME280;56279;47.902;12.308;2022-10-18T04:57:26;96362.59;;;10.22;95.26
69171;BME280;56279;47.902;12.308;2022-10-18T04:59:27;96362.34;;;10.23;95.00
69171;BME280;56279;47.902;12.308;2022-10-18T05:01:29;96366.31;;;10.26;95.21
69171;BME280;56279;47.902;12.308;2022-10-18T05:03:30;96358.16;;;10.27;95.24
69171;BME280;56279;47.902;12.308;2022-10-18T05:05:31;96365.84;;;10.29;95.19
69171;BME280;56279;47.902;12.308;2022-10-18T05:07:32;96368.47;;;10.29;95.29
69171;BME280;56279;47.902;12.308;2022-10-18T05:09:33;96363.19;;;10.29;95.28
69171;BME280;56279;47.902;12.308;2022-10-18T05:11:35;96361.59;;;10.28;95.20
69171;BME280;56279;47.902;12.308;2022-10-18T05:13:36;96358.16;;;10.27;95.39
69171;BME280;56279;47.902;12.308;2022-10-18T05:15:38;96361.03;;;10.26;95.39
69171;BME280;56279;47.902;12.308;2022-10-18T05:17:39;96361.03;;;10.26;95.57
69171;BME280;56279;47.902;12.308;2022-10-18T05:19:41;96367.34;;;10.25;95.73
69171;BME280;56279;47.902;12.308;2022-10-18T05:21:42;96384.47;;;10.22;95.65
69171;BME280;56279;47.902;12.308;2022-10-18T05:23:43;96386.81;;;10.19;95.57
69171;BME280;56279;47.902;12.308;2022-10-18T05:25:45;96382.84;;;10.16;95.47
69171;BME280;56279;47.902;12.308;2022-10-18T05:27:46;96384.38;;;10.12;95.58
69171;BME280;56279;47.902;12.308;2022-10-18T05:29:47;96385.66;;;10.10;95.53
69171;BME280;56279;47.902;12.308;2022-10-18T05:31:49;96377.19;;;10.08;95.77
69171;BME280;56279;47.902;12.308;2022-10-18T05:33:50;96382.69;;;10.06;95.69
69171;BME280;56279;47.902;12.308;2022-10-18T05:35:52;96381.66;;;10.07;96.08
69171;BME280;56279;47.902;12.308;2022-10-18T05:37:53;96384.28;;;10.07;95.93
69171;BME280;56279;47.902;12.308;2022-10-18T05:39:55;96385.88;;;10.08;95.74
69171;BME280;56279;47.902;12.308;2022-10-18T05:41:56;96392.75;;;10.09;96.03
69171;BME280;56279;47.902;12.308;2022-10-18T05:44:02;96396.41;;;10.08;95.92
69171;BME280;56279;47.902;12.308;2022-10-18T05:46:04;96400.94;;;10.08;95.76
69171;BME280;56279;47.902;12.308;2022-10-18T05:48:07;96395.66;;;10.08;96.02
69171;BME280;56279;47.902;12.308;2022-10-18T05:50:09;96405.66;;;10.06;96.00
69171;BME280;56279;47.902;12.308;2022-10-18T05:52:11;96408.28;;;10.06;95.90
69171;BME280;56279;47.902;12.308;2022-10-18T05:54:13;96413.78;;;10.04;96.06
69171;BME280;56279;47.902;12.308;2022-10-18T05:56:14;96410.34;;;10.04;96.09
69171;BME280;56279;47.902;12.308;2022-10-18T05:58:15;96413.78;;;10.04;95.95
69171;BME280;56279;47.902;12.308;2022-10-18T06:00:17;96408.28;;;10.06;96.37
69171;BME280;56279;47.902;12.308;2022-10-18T06:02:18;96404.09;;;10.10;95.94
69171;BME280;56279;47.902;12.308;2022-10-18T06:04:20;96405.50;;;10.12;96.10
69171;BME280;56279;47.902;12.308;2022-10-18T06:06:21;96415.28;;;10.17;96.24
69171;BME280;56279;47.902;12.308;2022-10-18T06:08:22;96414.78;;;10.20;96.24
69171;BME280;56279;47.902;12.308;2022-10-18T06:10:24;96416.13;;;10.22;96.22
69171;BME280;56279;47.902;12.308;2022-10-18T06:12:25;96413.81;;;10.26;96.06
69171;BME280;56279;47.902;12.308;2022-10-18T06:14:26;96406.44;;;10.28;95.95
69171;BME280;56279;47.902;12.308;2022-10-18T06:16:28;96409.41;;;10.31;96.09
69171;BME280;56279;47.902;12.308;2022-10-18T06:18:29;96410.50;;;10.35;95.80
69171;BME280;56279;47.902;12.308;2022-10-18T06:20:30;96417.13;;;10.38;96.04
69171;BME280;56279;47.902;12.308;2022-10-18T06:22:32;96420.84;;;10.42;95.75
69171;BME280;56279;47.902;12.308;2022-10-18T06:24:33;96409.78;;;10.45;95.73
69171;BME280;56279;47.902;12.308;2022-10-18T06:26:34;96416.97;;;10.50;95.75
69171;BME280;56279;47.902;12.308;2022-10-18T06:28:36;96411.97;;;10.53;95.51
69171;BME280;56279;47.902;12.308;2022-10-18T06:30:37;96411.47;;;10.56;95.47
69171;BME280;56279;47.902;12.308;2022-10-18T06:32:39;96411.53;;;10.61;95.47
69171;BME280;56279;47.902;12.308;2022-10-18T06:34:40;96404.44;;;10.67;95.39
69171;BME280;56279;47.902;12.308;2022-10-18T06:36:41;96393.69;;;10.73;95.36
69171;BME280;56279;47.902;12.308;2022-10-18T06:38:44;96397.47;;;10.82;95.21
69171;BME280;56279;47.902;12.308;2022-10-18T06:40:46;96392.25;;;10.92;94.99
69171;BME280;56279;47.902;12.308;2022-10-18T06:42:47;96395.53;;;11.04;94.58
69171;BME280;56279;47.902;12.308;2022-10-18T06:44:49;96405.38;;;11.14;94.16
69171;BME280;56279;47.902;12.308;2022-10-18T06:46:51;96409.94;;;11.24;93.80
69171;BME280;56279;47.902;12.308;2022-10-18T06:48:53;96407.91;;;11.36;93.71
69171;BME280;56279;47.902;12.308;2022-10-18T06:50:57;96420.94;;;11.47;93.16
69171;BME280;56279;47.902;12.308;2022-10-18T06:52:58;96422.84;;;11.57;92.77
69171;BME280;56279;47.902;12.308;2022-10-18T06:54:59;96434.22;;;11.62;92.59
69171;BME280;56279;47.902;12.308;2022-10-18T06:57:01;96435.03;;;11.63;92.51
69171;BME280;56279;47.902;12.308;2022-10-18T06:59:03;96442.16;;;11.62;92.33
69171;BME280;56279;47.902;12.308;2022-10-18T07:01:10;96428.16;;;11.62;92.61
69171;BME280;56279;47.902;12.308;2022-10-18T07:03:11;96438.75;;;11.62;92.28
69171;BME280;56279;47.902;12.308;2022-10-18T07:05:13;96435.84;;;11.63;92.16
69171;BME280;56279;47.902;12.308;2022-10-18T07:07:14;96443.50;;;11.65;92.25
69171;BME280;56279;47.902;12.308;2022-10-18T07:09:15;96445.91;;;11.66;91.98
69171;BME280;56279;47.902;12.308;2022-10-18T07:11:20;96449.94;;;11.69;92.10
69171;BME280;56279;47.902;12.308;2022-10-18T07:13:26;96444.63;;;11.69;92.03
69171;BME280;56279;47.902;12.308;2022-10-18T07:15:27;96443.06;;;11.73;91.98
69171;BME280;56279;47.902;12.308;2022-10-18T07:17:29;96435.41;;;11.76;91.79
69171;BME280;56279;47.902;12.308;2022-10-18T07:19:30;96442.56;;;11.81;91.78
69171;BME280;56279;47.902;12.308;2022-10-18T07:21:31;96434.66;;;11.86;91.90
69171;BME280;56279;47.902;12.308;2022-10-18T07:23:37;96431.50;;;11.89;91.67
69171;BME280;56279;47.902;12.308;2022-10-18T07:25:39;96425.72;;;11.97;91.64
69171;BME280;56279;47.902;12.308;2022-10-18T07:27:41;96421.78;;;12.05;91.53
69171;BME280;56279;47.902;12.308;2022-10-18T07:29:43;96431.09;;;12.12;91.29
69171;BME280;56279;47.902;12.308;2022-10-18T07:31:44;96423.69;;;12.19;91.15
69171;BME280;56279;47.902;12.308;2022-10-18T07:33:45;96427.44;;;12.28;90.95
69171;BME280;56279;47.902;12.308;2022-10-18T07:35:46;96431.97;;;12.38;90.72
69171;BME280;56279;47.902;12.308;2022-10-18T07:37:48;96440.72;;;12.48;90.34
69171;BME280;56279;47.902;12.308;2022-10-18T07:39:49;96433.88;;;12.63;89.83
69171;BME280;56279;47.902;12.308;2022-10-18T07:41:50;96431.25;;;12.78;89.18
69171;BME280;56279;47.902;12.308;2022-10-18T07:43:52;96432.34;;;12.92;88.73
69171;BME280;56279;47.902;12.308;2022-10-18T07:45:54;96427.88;;;13.07;88.65
69171;BME280;56279;47.902;12.308;2022-10-18T07:47:56;96434.50;;;13.25;87.95
69171;BME280;56279;47.902;12.308;2022-10-18T07:49:57;96418.56;;;13.40;88.16
69171;BME280;56279;47.902;12.308;2022-10-18T07:51:59;96414.84;;;13.56;88.03
69171;BME280;56279;47.902;12.308;2022-10-18T07:54:01;96421.44;;;13.74;87.77
69171;BME280;56279;47.902;12.308;2022-10-18T07:56:07;96420.31;;;13.95;86.78
69171;BME280;56279;47.902;12.308;2022-10-18T07:58:15;96421.28;;;14.19;86.34
69171;BME280;56279;47.902;12.308;2022-10-18T08:00:16;96426.78;;;14.43;85.62
69171;BME280;56279;47.902;12.308;2022-10-18T08:02:18;96429.28;;;14.68;84.78
69171;BME280;56279;47.902;12.308;2022-10-18T08:04:19;96425.16;;;14.91;84.29
69171;BME280;56279;47.902;12.308;2022-10-18T08:06:21;96420.22;;;15.13;83.43
69171;BME280;56279;47.902;12.308;2022-10-18T08:08:24;96431.47;;;15.34;82.92
69171;BME280;56279;47.902;12.308;2022-10-18T08:10:25;96425.22;;;15.53;82.27
69171;BME280;56279;47.902;12.308;2022-10-18T08:12:26;96427.97;;;15.72;81.38
69171;BME280;56279;47.902;12.308;2022-10-18T08:14:29;96431.50;;;15.91;80.67
69171;BME280;56279;47.902;12.308;2022-10-18T08:16:30;96429.44;;;16.07;80.50
69171;BME280;56279;47.902;12.308;2022-10-18T08:18:32;96424.22;;;16.20;79.59
69171;BME280;56279;47.902;12.308;2022-10-18T08:20:34;96418.22;;;16.33;79.22
69171;BME280;56279;47.902;12.308;2022-10-18T08:22:36;96430.31;;;16.44;78.56
69171;BME280;56279;47.902;12.308;2022-10-18T08:24:39;96421.94;;;16.56;78.09
69171;BME280;56279;47.902;12.308;2022-10-18T08:26:40;96419.41;;;16.65;78.04
69171;BME280;56279;47.902;12.308;2022-10-18T08:28:42;96422.25;;;16.73;77.41
69171;BME280;56279;47.902;12.308;2022-10-18T08:30:43;96431.94;;;16.83;76.91
69171;BME280;56279;47.902;12.308;2022-10-18T08:32:44;96430.81;;;16.89;77.13
69171;BME280;56279;47.902;12.308;2022-10-18T08:34:46;96431.31;;;16.91;77.52
69171;BME280;56279;47.902;12.308;2022-10-18T08:36:47;96433.41;;;16.94;77.64
69171;BME280;56279;47.902;12.308;2022-10-18T08:38:48;96434.16;;;16.94;77.99
69171;BME280;56279;47.902;12.308;2022-10-18T08:40:50;96439.44;;;16.99;78.24
69171;BME280;56279;47.902;12.308;2022-10-18T08:44:59;96438.13;;;16.97;78.26
69171;BME280;56279;47.902;12.308;2022-10-18T08:47:05;96437.13;;;16.93;78.30
69171;BME280;56279;47.902;12.308;2022-10-18T08:49:20;96435.84;;;16.90;78.66
69171;BME280;56279;47.902;12.308;2022-10-18T08:51:41;96437.72;;;16.90;78.31
69171;BME280;56279;47.902;12.308;2022-10-18T08:56:04;96436.13;;;16.89;77.29
69171;BME280;56279;47.902;12.308;2022-10-18T08:58:28;96437.28;;;16.83;77.53
69171;BME280;56279;47.902;12.308;2022-10-18T09:00:33;96443.78;;;16.77;77.68
69171;BME280;56279;47.902;12.308;2022-10-18T09:04:57;96442.03;;;16.67;78.26
69171;BME280;56279;47.902;12.308;2022-10-18T09:07:31;96442.59;;;16.64;78.59
69171;BME280;56279;47.902;12.308;2022-10-18T09:10:02;96443.75;;;16.58;78.66
69171;BME280;56279;47.902;12.308;2022-10-18T09:12:36;96443.03;;;16.52;79.34
69171;BME280;56279;47.902;12.308;2022-10-18T09:15:12;96440.19;;;16.44;79.27
69171;BME280;56279;47.902;12.308;2022-10-18T09:21:56;96442.66;;;16.17;79.55
69171;BME280;56279;47.902;12.308;2022-10-18T09:24:11;96445.66;;;16.10;79.43
69171;BME280;56279;47.902;12.308;2022-10-18T09:26:19;96443.25;;;16.09;79.32
69171;BME280;56279;47.902;12.308;2022-10-18T09:33:18;96436.13;;;16.04;78.74
69171;BME280;56279;47.902;12.308;2022-10-18T09:35:30;96431.31;;;16.06;78.44
69171;BME280;56279;47.902;12.308;2022-10-18T09:37:35;96429.94;;;16.09;78.50
69171;BME280;56279;47.902;12.308;2022-10-18T09:39:38;96426.44;;;16.13;78.30
69171;BME280;56279;47.902;12.308;2022-10-18T09:44:02;96431.34;;;16.25;77.31
69171;BME280;56279;47.902;12.308;2022-10-18T09:46:07;96421.94;;;16.32;76.65
69171;BME280;56279;47.902;12.308;2022-10-18T09:48:27;96423.97;;;16.40;75.96
69171;BME280;56279;47.902;12.308;2022-10-18T09:50:40;96426.00;;;16.48;75.88
69171;BME280;56279;47.902;12.308;2022-10-18T09:52:48;96418.47;;;16.55;74.72
69171;BME280;56279;47.902;12.308;2022-10-18T09:54:54;96427.69;;;16.63;74.22
69171;BME280;56279;47.902;12.308;2022-10-18T09:59:03;96434.97;;;16.76;73.29
69171;BME280;56279;47.902;12.308;2022-10-18T10:01:05;96428.78;;;16.81;73.02
69171;BME280;56279;47.902;12.308;2022-10-18T10:03:10;96429.50;;;16.86;73.15
69171;BME280;56279;47.902;12.308;2022-10-18T10:05:15;96416.31;;;16.95;72.78
69171;BME280;56279;47.902;12.308;2022-10-18T10:07:20;96417.22;;;17.04;72.92
69171;BME280;56279;47.902;12.308;2022-10-18T10:09:27;96415.13;;;17.19;72.84
69171;BME280;56279;47.902;12.308;2022-10-18T10:11:33;96418.13;;;17.32;71.89
69171;BME280;56279;47.902;12.308;2022-10-18T10:13:35;96420.34;;;17.43;71.55
69171;BME280;56279;47.902;12.308;2022-10-18T10:15:36;96417.88;;;17.47;71.34
69171;BME280;56279;47.902;12.308;2022-10-18T10:17:38;96415.19;;;17.47;71.43
69171;BME280;56279;47.902;12.308;2022-10-18T10:20:01;96411.47;;;17.48;71.96
69171;BME280;56279;47.902;12.308;2022-10-18T10:24:33;96408.72;;;17.53;72.01
69171;BME280;56279;47.902;12.308;2022-10-18T10:26:35;96411.78;;;17.60;71.92
69171;BME280;56279;47.902;12.308;2022-10-18T10:28:41;96404.97;;;17.67;71.66
69171;BME280;56279;47.902;12.308;2022-10-18T10:30:48;96406.69;;;17.77;71.14
69171;BME280;56279;47.902;12.308;2022-10-18T10:32:51;96395.09;;;17.81;70.76
69171;BME280;56279;47.902;12.308;2022-10-18T10:34:53;96405.41;;;17.88;70.36
69171;BME280;56279;47.902;12.308;2022-10-18T10:36:55;96401.75;;;17.98;70.18
69171;BME280;56279;47.902;12.308;2022-10-18T10:39:12;96399.97;;;18.07;70.71
69171;BME280;56279;47.902;12.308;2022-10-18T10:41:22;96395.50;;;18.16;70.14
69171;BME280;56279;47.902;12.308;2022-10-18T10:43:36;96401.22;;;18.23;69.84
69171;BME280;56279;47.902;12.308;2022-10-18T10:45:54;96391.25;;;18.28;69.23
69171;BME280;56279;47.902;12.308;2022-10-18T10:48:03;96388.16;;;18.35;69.16
69171;BME280;56279;47.902;12.308;2022-10-18T10:50:10;96390.94;;;18.43;68.70
69171;BME280;56279;47.902;12.308;2022-10-18T10:52:20;96391.63;;;18.49;67.51
69171;BME280;56279;47.902;12.308;2022-10-18T10:54:24;96389.16;;;18.52;67.95
69171;BME280;56279;47.902;12.308;2022-10-18T10:56:32;96390.13;;;18.56;67.88
69171;BME280;56279;47.902;12.308;2022-10-18T10:58:37;96393.50;;;18.62;67.39
69171;BME280;56279;47.902;12.308;2022-10-18T11:00:42;96389.91;;;18.67;67.53
69171;BME280;56279;47.902;12.308;2022-10-18T11:02:44;96384.63;;;18.75;67.50
69171;BME280;56279;47.902;12.308;2022-10-18T11:04:47;96379.34;;;18.84;66.75
69171;BME280;56279;47.902;12.308;2022-10-18T11:06:58;96382.88;;;18.93;66.97
69171;BME280;56279;47.902;12.308;2022-10-18T11:09:09;96375.91;;;19.05;66.23
69171;BME280;56279;47.902;12.308;2022-10-18T11:13:49;96371.50;;;19.31;66.11
69171;BME280;56279;47.902;12.308;2022-10-18T11:15:54;96367.19;;;19.44;65.49
69171;BME280;56279;47.902;12.308;2022-10-18T11:22:17;96364.78;;;19.65;63.97
69171;BME280;56279;47.902;12.308;2022-10-18T11:24:23;96362.47;;;19.72;63.74
69171;BME280;56279;47.902;12.308;2022-10-18T11:27:08;96355.84;;;19.78;63.75
69171;BME280;56279;47.902;12.308;2022-10-18T11:31:26;96354.47;;;19.89;63.61
69171;BME280;56279;47.902;12.308;2022-10-18T11:36:18;96356.88;;;19.90;63.66
69171;BME280;56279;47.902;12.308;2022-10-18T11:38:31;96354.94;;;19.91;62.85
69171;BME280;56279;47.902;12.308;2022-10-18T11:56:36;96331.16;;;19.98;62.83
69171;BME280;56279;47.902;12.308;2022-10-18T11:59:14;96324.72;;;20.08;63.18